sensor_id;sensor_type;location;lat;lon;timestamp;P1;durP1;ratioP1;P2;durP2;ratioP2
24145;SDS011;12308;50.948;4.706;2023-04-29T00:01:18;109.05;;;48.83;;
24145;SDS011;12308;50.948;4.706;2023-04-29T00:03:44;109.80;;;47.38;;
24145;SDS011;12308;50.948;4.706;2023-04-29T00:06:09;110.75;;;46.17;;
24145;SDS011;12308;50.948;4.706;2023-04-29T00:08:37;98.25;;;44.63;;
24145;SDS011;12308;50.948;4.706;2023-04-29T00:11:03;104.97;;;45.40;;
24145;SDS011;12308;50.948;4.706;2023-04-29T00:13:29;102.07;;;45.17;;
24145;SDS011;12308;50.948;4.706;2023-04-29T00:15:54;100.07;;;45.33;;
24145;SDS011;12308;50.948;4.706;2023-04-29T00:18:20;92.13;;;40.30;;
24145;SDS011;12308;50.948;4.706;2023-04-29T00:20:46;88.05;;;40.72;;
24145;SDS011;12308;50.948;4.706;2023-04-29T00:23:12;91.57;;;42.42;;
24145;SDS011;12308;50.948;4.706;2023-04-29T00:25:37;96.03;;;42.53;;
24145;SDS011;12308;50.948;4.706;2023-04-29T00:28:04;96.85;;;42.38;;
24145;SDS011;12308;50.948;4.706;2023-04-29T00:30:30;100.47;;;41.28;;
24145;SDS011;12308;50.948;4.706;2023-04-29T00:32:57;93.75;;;42.70;;
24145;SDS011;12308;50.948;4.706;2023-04-29T00:35:23;97.43;;;42.50;;
24145;SDS011;12308;50.948;4.706;2023-04-29T00:37:49;101.05;;;41.22;;
24145;SDS011;12308;50.948;4.706;2023-04-29T00:40:14;103.35;;;43.58;;
24145;SDS011;12308;50.948;4.706;2023-04-29T00:42:41;101.10;;;43.83;;
24145;SDS011;12308;50.948;4.706;2023-04-29T00:45:07;98.32;;;41.08;;
24145;SDS011;12308;50.948;4.706;2023-04-29T00:47:35;101.68;;;44.60;;
24145;SDS011;12308;50.948;4.706;2023-04-29T00:50:01;103.88;;;44.40;;
24145;SDS011;12308;50.948;4.706;2023-04-29T00:52:28;101.22;;;43.58;;
24145;SDS011;12308;50.948;4.706;2023-04-29T00:54:58;98.40;;;44.35;;
24145;SDS011;12308;50.948;4.706;2023-04-29T00:57:24;104.70;;;44.05;;
24145;SDS011;12308;50.948;4.706;2023-04-29T00:59:53;110.68;;;45.35;;
24145;SDS011;12308;50.948;4.706;2023-04-29T01:02:19;103.25;;;46.38;;
24145;SDS011;12308;50.948;4.706;2023-04-29T01:04:45;108.68;;;46.85;;
24145;SDS011;12308;50.948;4.706;2023-04-29T01:07:16;106.03;;;46.22;;
24145;SDS011;12308;50.948;4.706;2023-04-29T01:12:45;98.05;;;41.20;;
24145;SDS011;12308;50.948;4.706;2023-04-29T01:15:48;104.32;;;45.60;;
24145;SDS011;12308;50.948;4.706;2023-04-29T01:18:42;99.05;;;42.38;;
24145;SDS011;12308;50.948;4.706;2023-04-29T01:21:13;95.63;;;43.05;;
24145;SDS011;12308;50.948;4.706;2023-04-29T01:23:39;104.18;;;42.63;;
24145;SDS011;12308;50.948;4.706;2023-04-29T01:26:06;101.80;;;42.83;;
24145;SDS011;12308;50.948;4.706;2023-04-29T01:31:24;96.72;;;43.22;;
24145;SDS011;12308;50.948;4.706;2023-04-29T01:39:55;109.70;;;45.70;;
24145;SDS011;12308;50.948;4.706;2023-04-29T01:42:38;110.68;;;47.10;;
24145;SDS011;12308;50.948;4.706;2023-04-29T01:45:09;104.40;;;43.13;;
24145;SDS011;12308;50.948;4.706;2023-04-29T01:47:36;110.45;;;47.60;;
24145;SDS011;12308;50.948;4.706;2023-04-29T01:50:03;107.00;;;48.00;;
24145;SDS011;12308;50.948;4.706;2023-04-29T01:52:29;103.38;;;46.92;;
24145;SDS011;12308;50.948;4.706;2023-04-29T01:54:55;103.90;;;48.88;;
24145;SDS011;12308;50.948;4.706;2023-04-29T01:57:21;100.78;;;46.20;;
24145;SDS011;12308;50.948;4.706;2023-04-29T01:59:46;101.95;;;46.60;;
24145;SDS011;12308;50.948;4.706;2023-04-29T02:02:12;96.15;;;44.60;;
24145;SDS011;12308;50.948;4.706;2023-04-29T02:04:39;94.15;;;45.22;;
24145;SDS011;12308;50.948;4.706;2023-04-29T02:07:05;89.97;;;42.83;;
24145;SDS011;12308;50.948;4.706;2023-04-29T02:09:31;85.15;;;39.25;;
24145;SDS011;12308;50.948;4.706;2023-04-29T02:11:57;90.68;;;42.80;;
24145;SDS011;12308;50.948;4.706;2023-04-29T02:14:22;80.57;;;41.40;;
24145;SDS011;12308;50.948;4.706;2023-04-29T02:16:48;92.82;;;41.50;;
24145;SDS011;12308;50.948;4.706;2023-04-29T02:19:14;79.18;;;40.58;;
24145;SDS011;12308;50.948;4.706;2023-04-29T02:21:40;70.43;;;38.78;;
24145;SDS011;12308;50.948;4.706;2023-04-29T02:24:06;77.70;;;39.25;;
24145;SDS011;12308;50.948;4.706;2023-04-29T02:26:31;75.97;;;36.58;;
24145;SDS011;12308;50.948;4.706;2023-04-29T02:28:58;80.13;;;39.38;;
24145;SDS011;12308;50.948;4.706;2023-04-29T02:31:24;87.55;;;45.55;;
24145;SDS011;12308;50.948;4.706;2023-04-29T02:33:50;97.05;;;46.85;;
24145;SDS011;12308;50.948;4.706;2023-04-29T02:36:15;90.55;;;46.38;;
24145;SDS011;12308;50.948;4.706;2023-04-29T02:38:42;84.20;;;44.40;;
24145;SDS011;12308;50.948;4.706;2023-04-29T02:41:08;92.40;;;48.08;;
24145;SDS011;12308;50.948;4.706;2023-04-29T02:43:34;95.43;;;45.47;;
24145;SDS011;12308;50.948;4.706;2023-04-29T02:46:00;87.97;;;47.20;;
24145;SDS011;12308;50.948;4.706;2023-04-29T02:48:26;86.38;;;46.38;;
24145;SDS011;12308;50.948;4.706;2023-04-29T02:50:51;88.97;;;46.88;;
24145;SDS011;12308;50.948;4.706;2023-04-29T02:53:17;90.80;;;45.78;;
24145;SDS011;12308;50.948;4.706;2023-04-29T02:55:44;89.13;;;42.95;;
24145;SDS011;12308;50.948;4.706;2023-04-29T02:58:11;80.35;;;43.30;;
24145;SDS011;12308;50.948;4.706;2023-04-29T03:00:36;84.55;;;44.53;;
24145;SDS011;12308;50.948;4.706;2023-04-29T03:03:04;90.72;;;43.28;;
24145;SDS011;12308;50.948;4.706;2023-04-29T03:05:30;82.15;;;46.13;;
24145;SDS011;12308;50.948;4.706;2023-04-29T03:07:56;89.90;;;47.40;;
24145;SDS011;12308;50.948;4.706;2023-04-29T03:10:22;95.80;;;50.42;;
24145;SDS011;12308;50.948;4.706;2023-04-29T03:12:48;100.57;;;51.65;;
24145;SDS011;12308;50.948;4.706;2023-04-29T03:15:13;96.05;;;49.63;;
24145;SDS011;12308;50.948;4.706;2023-04-29T03:17:39;92.53;;;46.47;;
24145;SDS011;12308;50.948;4.706;2023-04-29T03:20:05;84.30;;;42.60;;
24145;SDS011;12308;50.948;4.706;2023-04-29T03:22:32;82.13;;;39.88;;
24145;SDS011;12308;50.948;4.706;2023-04-29T03:24:57;77.22;;;40.75;;
24145;SDS011;12308;50.948;4.706;2023-04-29T03:27:23;79.05;;;40.30;;
24145;SDS011;12308;50.948;4.706;2023-04-29T03:29:49;80.20;;;40.30;;
24145;SDS011;12308;50.948;4.706;2023-04-29T03:32:14;81.30;;;40.33;;
24145;SDS011;12308;50.948;4.706;2023-04-29T03:34:40;72.20;;;39.50;;
24145;SDS011;12308;50.948;4.706;2023-04-29T03:37:06;73.25;;;38.75;;
24145;SDS011;12308;50.948;4.706;2023-04-29T03:39:32;76.82;;;40.17;;
24145;SDS011;12308;50.948;4.706;2023-04-29T03:41:58;71.80;;;37.33;;
24145;SDS011;12308;50.948;4.706;2023-04-29T03:44:24;85.60;;;40.55;;
24145;SDS011;12308;50.948;4.706;2023-04-29T03:46:50;80.03;;;42.22;;
24145;SDS011;12308;50.948;4.706;2023-04-29T03:49:16;99.10;;;45.55;;
24145;SDS011;12308;50.948;4.706;2023-04-29T03:51:42;110.63;;;49.50;;
24145;SDS011;12308;50.948;4.706;2023-04-29T03:54:11;108.53;;;50.28;;
24145;SDS011;12308;50.948;4.706;2023-04-29T03:56:37;131.35;;;55.53;;
24145;SDS011;12308;50.948;4.706;2023-04-29T03:59:03;139.00;;;57.83;;
24145;SDS011;12308;50.948;4.706;2023-04-29T04:01:29;129.55;;;58.55;;
24145;SDS011;12308;50.948;4.706;2023-04-29T04:03:55;137.15;;;58.28;;
24145;SDS011;12308;50.948;4.706;2023-04-29T04:06:21;137.70;;;58.53;;
24145;SDS011;12308;50.948;4.706;2023-04-29T04:08:47;126.57;;;56.15;;
24145;SDS011;12308;50.948;4.706;2023-04-29T04:11:13;132.15;;;59.25;;
24145;SDS011;12308;50.948;4.706;2023-04-29T04:13:42;128.90;;;58.35;;
24145;SDS011;12308;50.948;4.706;2023-04-29T04:16:08;139.90;;;60.42;;
24145;SDS011;12308;50.948;4.706;2023-04-29T04:18:35;125.00;;;57.55;;
24145;SDS011;12308;50.948;4.706;2023-04-29T04:21:08;135.40;;;58.90;;
24145;SDS011;12308;50.948;4.706;2023-04-29T04:23:34;130.88;;;57.67;;
24145;SDS011;12308;50.948;4.706;2023-04-29T04:26:00;131.95;;;57.03;;
24145;SDS011;12308;50.948;4.706;2023-04-29T04:28:26;124.15;;;54.42;;
24145;SDS011;12308;50.948;4.706;2023-04-29T04:30:51;137.57;;;59.90;;
24145;SDS011;12308;50.948;4.706;2023-04-29T04:33:17;129.00;;;58.63;;
24145;SDS011;12308;50.948;4.706;2023-04-29T04:35:43;135.18;;;57.33;;
24145;SDS011;12308;50.948;4.706;2023-04-29T04:38:08;134.80;;;58.92;;
24145;SDS011;12308;50.948;4.706;2023-04-29T04:40:35;134.13;;;58.22;;
24145;SDS011;12308;50.948;4.706;2023-04-29T04:43:05;140.75;;;60.35;;
24145;SDS011;12308;50.948;4.706;2023-04-29T04:45:30;140.55;;;55.92;;
24145;SDS011;12308;50.948;4.706;2023-04-29T04:47:56;130.93;;;57.67;;
24145;SDS011;12308;50.948;4.706;2023-04-29T04:50:22;141.93;;;59.05;;
24145;SDS011;12308;50.948;4.706;2023-04-29T04:52:47;138.52;;;57.05;;
24145;SDS011;12308;50.948;4.706;2023-04-29T04:55:13;126.07;;;57.55;;
24145;SDS011;12308;50.948;4.706;2023-04-29T04:57:39;139.77;;;57.53;;
24145;SDS011;12308;50.948;4.706;2023-04-29T05:00:05;125.03;;;55.67;;
24145;SDS011;12308;50.948;4.706;2023-04-29T05:02:31;127.43;;;56.78;;
24145;SDS011;12308;50.948;4.706;2023-04-29T05:04:57;132.27;;;55.35;;
24145;SDS011;12308;50.948;4.706;2023-04-29T05:07:23;126.88;;;55.50;;
24145;SDS011;12308;50.948;4.706;2023-04-29T05:09:48;120.07;;;52.85;;
24145;SDS011;12308;50.948;4.706;2023-04-29T05:12:14;127.15;;;53.63;;
24145;SDS011;12308;50.948;4.706;2023-04-29T05:14:40;120.13;;;51.75;;
24145;SDS011;12308;50.948;4.706;2023-04-29T05:17:06;121.30;;;54.15;;
24145;SDS011;12308;50.948;4.706;2023-04-29T05:19:33;121.78;;;53.47;;
24145;SDS011;12308;50.948;4.706;2023-04-29T05:21:59;127.10;;;54.17;;
24145;SDS011;12308;50.948;4.706;2023-04-29T05:24:25;118.75;;;54.03;;
24145;SDS011;12308;50.948;4.706;2023-04-29T05:26:50;119.00;;;55.15;;
24145;SDS011;12308;50.948;4.706;2023-04-29T05:29:18;116.18;;;54.25;;
24145;SDS011;12308;50.948;4.706;2023-04-29T05:31:43;118.30;;;54.20;;
24145;SDS011;12308;50.948;4.706;2023-04-29T05:34:09;117.07;;;53.50;;
24145;SDS011;12308;50.948;4.706;2023-04-29T05:36:35;120.72;;;52.83;;
24145;SDS011;12308;50.948;4.706;2023-04-29T05:39:01;123.65;;;56.08;;
24145;SDS011;12308;50.948;4.706;2023-04-29T05:41:27;113.28;;;53.15;;
24145;SDS011;12308;50.948;4.706;2023-04-29T05:43:53;123.40;;;54.60;;
24145;SDS011;12308;50.948;4.706;2023-04-29T05:46:18;123.93;;;53.83;;
24145;SDS011;12308;50.948;4.706;2023-04-29T05:48:44;123.65;;;52.97;;
24145;SDS011;12308;50.948;4.706;2023-04-29T05:51:11;119.78;;;54.80;;
24145;SDS011;12308;50.948;4.706;2023-04-29T05:53:37;120.30;;;55.28;;
24145;SDS011;12308;50.948;4.706;2023-04-29T05:56:04;112.15;;;54.13;;
24145;SDS011;12308;50.948;4.706;2023-04-29T05:58:32;108.18;;;50.33;;
24145;SDS011;12308;50.948;4.706;2023-04-29T06:00:59;115.93;;;53.58;;
24145;SDS011;12308;50.948;4.706;2023-04-29T06:03:25;113.43;;;52.50;;
24145;SDS011;12308;50.948;4.706;2023-04-29T06:05:51;124.78;;;54.05;;
24145;SDS011;12308;50.948;4.706;2023-04-29T06:08:17;112.57;;;50.72;;
24145;SDS011;12308;50.948;4.706;2023-04-29T06:10:43;115.25;;;53.47;;
24145;SDS011;12308;50.948;4.706;2023-04-29T06:13:10;115.82;;;52.67;;
24145;SDS011;12308;50.948;4.706;2023-04-29T06:15:35;117.68;;;52.78;;
24145;SDS011;12308;50.948;4.706;2023-04-29T06:18:01;115.43;;;53.70;;
24145;SDS011;12308;50.948;4.706;2023-04-29T06:20:27;108.50;;;50.60;;
24145;SDS011;12308;50.948;4.706;2023-04-29T06:22:53;102.05;;;47.33;;
24145;SDS011;12308;50.948;4.706;2023-04-29T06:25:18;102.57;;;48.95;;
24145;SDS011;12308;50.948;4.706;2023-04-29T06:27:44;102.70;;;50.22;;
24145;SDS011;12308;50.948;4.706;2023-04-29T06:30:10;113.05;;;49.88;;
24145;SDS011;12308;50.948;4.706;2023-04-29T06:32:39;110.45;;;48.80;;
24145;SDS011;12308;50.948;4.706;2023-04-29T06:35:04;98.05;;;47.33;;
24145;SDS011;12308;50.948;4.706;2023-04-29T06:37:31;109.93;;;51.78;;
24145;SDS011;12308;50.948;4.706;2023-04-29T06:39:56;104.60;;;48.00;;
24145;SDS011;12308;50.948;4.706;2023-04-29T06:42:22;91.93;;;44.33;;
24145;SDS011;12308;50.948;4.706;2023-04-29T06:44:48;92.18;;;45.25;;
24145;SDS011;12308;50.948;4.706;2023-04-29T06:47:13;91.05;;;45.22;;
24145;SDS011;12308;50.948;4.706;2023-04-29T06:49:39;95.68;;;46.28;;
24145;SDS011;12308;50.948;4.706;2023-04-29T06:52:07;92.43;;;44.72;;
24145;SDS011;12308;50.948;4.706;2023-04-29T06:54:33;104.07;;;48.30;;
24145;SDS011;12308;50.948;4.706;2023-04-29T06:56:59;96.70;;;45.38;;
24145;SDS011;12308;50.948;4.706;2023-04-29T06:59:26;99.45;;;49.40;;
24145;SDS011;12308;50.948;4.706;2023-04-29T07:01:51;100.63;;;46.58;;
24145;SDS011;12308;50.948;4.706;2023-04-29T07:04:17;98.95;;;46.28;;
24145;SDS011;12308;50.948;4.706;2023-04-29T07:06:43;105.55;;;45.47;;
24145;SDS011;12308;50.948;4.706;2023-04-29T07:09:11;108.88;;;47.50;;
24145;SDS011;12308;50.948;4.706;2023-04-29T07:11:40;89.85;;;44.25;;
24145;SDS011;12308;50.948;4.706;2023-04-29T07:14:06;99.70;;;46.20;;
24145;SDS011;12308;50.948;4.706;2023-04-29T07:16:32;92.53;;;43.58;;
24145;SDS011;12308;50.948;4.706;2023-04-29T07:18:58;93.50;;;47.10;;
24145;SDS011;12308;50.948;4.706;2023-04-29T07:21:24;90.00;;;45.40;;
24145;SDS011;12308;50.948;4.706;2023-04-29T07:23:50;89.18;;;44.00;;
24145;SDS011;12308;50.948;4.706;2023-04-29T07:26:16;93.68;;;45.88;;
24145;SDS011;12308;50.948;4.706;2023-04-29T07:28:42;100.45;;;45.75;;
24145;SDS011;12308;50.948;4.706;2023-04-29T07:31:09;97.22;;;47.25;;
24145;SDS011;12308;50.948;4.706;2023-04-29T07:33:38;92.95;;;46.47;;
24145;SDS011;12308;50.948;4.706;2023-04-29T07:36:04;91.18;;;43.47;;
24145;SDS011;12308;50.948;4.706;2023-04-29T07:38:31;93.05;;;44.40;;
24145;SDS011;12308;50.948;4.706;2023-04-29T07:40:58;93.75;;;46.15;;
24145;SDS011;12308;50.948;4.706;2023-04-29T07:43:23;91.88;;;45.40;;
24145;SDS011;12308;50.948;4.706;2023-04-29T07:45:49;86.88;;;43.22;;
24145;SDS011;12308;50.948;4.706;2023-04-29T07:48:15;80.32;;;42.30;;
24145;SDS011;12308;50.948;4.706;2023-04-29T07:50:41;78.75;;;41.22;;
24145;SDS011;12308;50.948;4.706;2023-04-29T07:53:08;79.22;;;40.42;;
24145;SDS011;12308;50.948;4.706;2023-04-29T07:55:35;69.78;;;39.80;;
24145;SDS011;12308;50.948;4.706;2023-04-29T07:58:01;80.53;;;40.47;;
24145;SDS011;12308;50.948;4.706;2023-04-29T08:00:27;72.70;;;38.75;;
24145;SDS011;12308;50.948;4.706;2023-04-29T08:02:53;81.65;;;39.88;;
24145;SDS011;12308;50.948;4.706;2023-04-29T08:05:20;74.40;;;38.00;;
24145;SDS011;12308;50.948;4.706;2023-04-29T08:07:47;74.38;;;39.78;;
24145;SDS011;12308;50.948;4.706;2023-04-29T08:10:13;73.82;;;38.28;;
24145;SDS011;12308;50.948;4.706;2023-04-29T08:12:46;131.63;;;72.38;;
24145;SDS011;12308;50.948;4.706;2023-04-29T08:15:14;76.20;;;39.78;;
24145;SDS011;12308;50.948;4.706;2023-04-29T08:17:42;73.25;;;38.30;;
24145;SDS011;12308;50.948;4.706;2023-04-29T08:20:08;72.25;;;39.70;;
24145;SDS011;12308;50.948;4.706;2023-04-29T08:22:34;75.25;;;39.05;;
24145;SDS011;12308;50.948;4.706;2023-04-29T08:25:00;72.97;;;36.67;;
24145;SDS011;12308;50.948;4.706;2023-04-29T08:27:27;74.35;;;36.03;;
24145;SDS011;12308;50.948;4.706;2023-04-29T08:29:53;68.85;;;35.80;;
24145;SDS011;12308;50.948;4.706;2023-04-29T08:32:20;72.10;;;37.35;;
24145;SDS011;12308;50.948;4.706;2023-04-29T08:34:46;78.15;;;36.15;;
24145;SDS011;12308;50.948;4.706;2023-04-29T08:37:12;67.15;;;35.03;;
24145;SDS011;12308;50.948;4.706;2023-04-29T08:39:39;71.97;;;37.60;;
24145;SDS011;12308;50.948;4.706;2023-04-29T08:42:08;69.32;;;37.83;;
24145;SDS011;12308;50.948;4.706;2023-04-29T08:44:34;71.30;;;36.88;;
24145;SDS011;12308;50.948;4.706;2023-04-29T08:47:01;71.68;;;35.63;;
24145;SDS011;12308;50.948;4.706;2023-04-29T08:49:27;63.63;;;32.60;;
24145;SDS011;12308;50.948;4.706;2023-04-29T08:51:53;76.53;;;34.25;;
24145;SDS011;12308;50.948;4.706;2023-04-29T08:54:19;67.53;;;35.38;;
24145;SDS011;12308;50.948;4.706;2023-04-29T08:56:45;61.40;;;32.78;;
24145;SDS011;12308;50.948;4.706;2023-04-29T08:59:14;69.72;;;34.90;;
24145;SDS011;12308;50.948;4.706;2023-04-29T09:01:41;65.15;;;34.20;;
24145;SDS011;12308;50.948;4.706;2023-04-29T09:04:11;64.40;;;33.90;;
24145;SDS011;12308;50.948;4.706;2023-04-29T09:06:46;68.93;;;35.25;;
24145;SDS011;12308;50.948;4.706;2023-04-29T09:09:12;64.93;;;33.80;;
24145;SDS011;12308;50.948;4.706;2023-04-29T09:11:39;67.32;;;34.35;;
24145;SDS011;12308;50.948;4.706;2023-04-29T09:14:05;61.47;;;32.17;;
24145;SDS011;12308;50.948;4.706;2023-04-29T09:16:32;61.65;;;34.83;;
24145;SDS011;12308;50.948;4.706;2023-04-29T09:18:59;63.53;;;32.63;;
24145;SDS011;12308;50.948;4.706;2023-04-29T09:21:26;63.22;;;32.08;;
24145;SDS011;12308;50.948;4.706;2023-04-29T09:26:19;61.35;;;31.10;;
24145;SDS011;12308;50.948;4.706;2023-04-29T09:28:46;56.47;;;32.20;;
24145;SDS011;12308;50.948;4.706;2023-04-29T09:31:29;54.00;;;30.38;;
24145;SDS011;12308;50.948;4.706;2023-04-29T09:33:55;60.15;;;31.33;;
24145;SDS011;12308;50.948;4.706;2023-04-29T09:39:21;57.67;;;29.92;;
24145;SDS011;12308;50.948;4.706;2023-04-29T09:44:23;54.03;;;29.60;;
24145;SDS011;12308;50.948;4.706;2023-04-29T09:49:23;64.47;;;30.42;;
24145;SDS011;12308;50.948;4.706;2023-04-29T09:51:56;53.78;;;30.50;;
24145;SDS011;12308;50.948;4.706;2023-04-29T09:54:30;52.13;;;28.90;;
24145;SDS011;12308;50.948;4.706;2023-04-29T09:56:57;51.08;;;29.63;;
24145;SDS011;12308;50.948;4.706;2023-04-29T09:59:24;49.22;;;27.38;;
24145;SDS011;12308;50.948;4.706;2023-04-29T10:01:51;42.28;;;26.20;;
24145;SDS011;12308;50.948;4.706;2023-04-29T10:04:22;49.13;;;27.42;;
24145;SDS011;12308;50.948;4.706;2023-04-29T10:06:52;44.73;;;26.87;;
24145;SDS011;12308;50.948;4.706;2023-04-29T10:09:20;45.13;;;25.95;;
24145;SDS011;12308;50.948;4.706;2023-04-29T10:11:48;42.33;;;26.95;;
24145;SDS011;12308;50.948;4.706;2023-04-29T10:14:18;45.80;;;27.92;;
24145;SDS011;12308;50.948;4.706;2023-04-29T10:16:46;45.88;;;27.60;;
24145;SDS011;12308;50.948;4.706;2023-04-29T10:19:17;49.78;;;27.90;;
24145;SDS011;12308;50.948;4.706;2023-04-29T10:21:50;45.33;;;26.17;;
24145;SDS011;12308;50.948;4.706;2023-04-29T10:24:19;42.78;;;26.08;;
24145;SDS011;12308;50.948;4.706;2023-04-29T10:26:46;40.97;;;26.00;;
24145;SDS011;12308;50.948;4.706;2023-04-29T10:29:16;47.13;;;26.98;;
24145;SDS011;12308;50.948;4.706;2023-04-29T10:31:43;45.85;;;26.90;;
24145;SDS011;12308;50.948;4.706;2023-04-29T10:34:11;48.00;;;28.33;;
24145;SDS011;12308;50.948;4.706;2023-04-29T10:36:38;44.55;;;27.75;;
24145;SDS011;12308;50.948;4.706;2023-04-29T10:39:04;42.20;;;25.70;;
24145;SDS011;12308;50.948;4.706;2023-04-29T10:41:36;41.50;;;25.50;;
24145;SDS011;12308;50.948;4.706;2023-04-29T10:44:10;50.72;;;28.58;;
24145;SDS011;12308;50.948;4.706;2023-04-29T10:46:36;44.53;;;26.95;;
24145;SDS011;12308;50.948;4.706;2023-04-29T10:49:03;45.28;;;28.02;;
24145;SDS011;12308;50.948;4.706;2023-04-29T10:51:40;42.67;;;25.02;;
24145;SDS011;12308;50.948;4.706;2023-04-29T10:54:17;40.15;;;25.40;;
24145;SDS011;12308;50.948;4.706;2023-04-29T10:56:52;40.00;;;25.65;;
24145;SDS011;12308;50.948;4.706;2023-04-29T11:01:53;39.95;;;25.25;;
24145;SDS011;12308;50.948;4.706;2023-04-29T11:04:20;39.70;;;25.65;;
24145;SDS011;12308;50.948;4.706;2023-04-29T11:06:47;40.95;;;24.88;;
24145;SDS011;12308;50.948;4.706;2023-04-29T11:14:20;41.35;;;26.25;;
24145;SDS011;12308;50.948;4.706;2023-04-29T11:17:12;38.67;;;23.67;;
24145;SDS011;12308;50.948;4.706;2023-04-29T11:19:42;43.47;;;24.85;;
24145;SDS011;12308;50.948;4.706;2023-04-29T11:22:11;36.10;;;23.13;;
24145;SDS011;12308;50.948;4.706;2023-04-29T11:24:56;36.22;;;23.65;;
24145;SDS011;12308;50.948;4.706;2023-04-29T11:27:29;38.30;;;22.00;;
24145;SDS011;12308;50.948;4.706;2023-04-29T11:30:04;35.78;;;24.45;;
24145;SDS011;12308;50.948;4.706;2023-04-29T11:32:32;37.13;;;24.67;;
24145;SDS011;12308;50.948;4.706;2023-04-29T11:35:06;37.58;;;24.15;;
24145;SDS011;12308;50.948;4.706;2023-04-29T11:37:33;34.33;;;23.25;;
24145;SDS011;12308;50.948;4.706;2023-04-29T11:40:00;39.25;;;23.52;;
24145;SDS011;12308;50.948;4.706;2023-04-29T11:42:26;35.55;;;22.20;;
24145;SDS011;12308;50.948;4.706;2023-04-29T11:44:56;38.33;;;22.10;;
24145;SDS011;12308;50.948;4.706;2023-04-29T11:47:27;35.55;;;22.88;;
24145;SDS011;12308;50.948;4.706;2023-04-29T11:50:04;31.77;;;21.58;;
24145;SDS011;12308;50.948;4.706;2023-04-29T11:52:34;33.63;;;21.33;;
24145;SDS011;12308;50.948;4.706;2023-04-29T11:55:01;33.83;;;20.67;;
24145;SDS011;12308;50.948;4.706;2023-04-29T11:57:28;32.80;;;19.20;;
24145;SDS011;12308;50.948;4.706;2023-04-29T11:59:53;35.70;;;20.83;;
24145;SDS011;12308;50.948;4.706;2023-04-29T12:02:21;33.25;;;21.20;;
24145;SDS011;12308;50.948;4.706;2023-04-29T12:04:47;36.05;;;20.90;;
24145;SDS011;12308;50.948;4.706;2023-04-29T12:07:16;26.33;;;18.92;;
24145;SDS011;12308;50.948;4.706;2023-04-29T12:09:43;27.75;;;20.35;;
24145;SDS011;12308;50.948;4.706;2023-04-29T12:12:09;30.13;;;20.33;;
24145;SDS011;12308;50.948;4.706;2023-04-29T12:14:35;34.30;;;21.38;;
24145;SDS011;12308;50.948;4.706;2023-04-29T12:17:02;36.83;;;20.90;;
24145;SDS011;12308;50.948;4.706;2023-04-29T12:19:29;28.23;;;20.33;;
24145;SDS011;12308;50.948;4.706;2023-04-29T12:21:58;30.52;;;19.83;;
24145;SDS011;12308;50.948;4.706;2023-04-29T12:24:25;27.50;;;18.40;;
24145;SDS011;12308;50.948;4.706;2023-04-29T12:26:50;26.67;;;17.58;;
24145;SDS011;12308;50.948;4.706;2023-04-29T12:29:20;28.92;;;19.48;;
24145;SDS011;12308;50.948;4.706;2023-04-29T12:31:47;26.48;;;18.65;;
24145;SDS011;12308;50.948;4.706;2023-04-29T12:34:15;27.98;;;19.58;;
24145;SDS011;12308;50.948;4.706;2023-04-29T12:36:41;36.00;;;22.92;;
24145;SDS011;12308;50.948;4.706;2023-04-29T12:39:07;32.08;;;21.15;;
24145;SDS011;12308;50.948;4.706;2023-04-29T12:41:41;30.63;;;21.02;;
24145;SDS011;12308;50.948;4.706;2023-04-29T12:44:07;30.90;;;22.08;;
24145;SDS011;12308;50.948;4.706;2023-04-29T12:46:38;28.15;;;19.88;;
24145;SDS011;12308;50.948;4.706;2023-04-29T12:49:05;30.85;;;18.23;;
24145;SDS011;12308;50.948;4.706;2023-04-29T12:51:31;28.88;;;19.35;;
24145;SDS011;12308;50.948;4.706;2023-04-29T12:53:59;27.48;;;19.23;;
24145;SDS011;12308;50.948;4.706;2023-04-29T12:56:27;27.17;;;18.70;;
24145;SDS011;12308;50.948;4.706;2023-04-29T12:58:54;30.05;;;19.63;;
24145;SDS011;12308;50.948;4.706;2023-04-29T13:01:19;30.20;;;20.25;;
24145;SDS011;12308;50.948;4.706;2023-04-29T13:03:45;31.35;;;21.25;;
24145;SDS011;12308;50.948;4.706;2023-04-29T13:06:11;29.88;;;20.20;;
24145;SDS011;12308;50.948;4.706;2023-04-29T13:08:37;29.80;;;20.05;;
24145;SDS011;12308;50.948;4.706;2023-04-29T13:11:02;34.97;;;21.85;;
24145;SDS011;12308;50.948;4.706;2023-04-29T13:13:28;34.88;;;21.70;;
24145;SDS011;12308;50.948;4.706;2023-04-29T13:15:54;30.40;;;19.65;;
24145;SDS011;12308;50.948;4.706;2023-04-29T13:18:20;29.35;;;21.08;;
24145;SDS011;12308;50.948;4.706;2023-04-29T13:20:45;29.77;;;20.55;;
24145;SDS011;12308;50.948;4.706;2023-04-29T13:23:11;29.45;;;20.58;;
24145;SDS011;12308;50.948;4.706;2023-04-29T13:25:37;29.10;;;20.35;;
24145;SDS011;12308;50.948;4.706;2023-04-29T13:28:02;29.02;;;19.80;;
24145;SDS011;12308;50.948;4.706;2023-04-29T13:30:31;28.77;;;20.48;;
24145;SDS011;12308;50.948;4.706;2023-04-29T13:32:57;30.77;;;20.77;;
24145;SDS011;12308;50.948;4.706;2023-04-29T13:35:23;28.02;;;20.05;;
24145;SDS011;12308;50.948;4.706;2023-04-29T13:37:48;27.02;;;19.05;;
24145;SDS011;12308;50.948;4.706;2023-04-29T13:40:14;25.83;;;19.00;;
24145;SDS011;12308;50.948;4.706;2023-04-29T13:42:40;23.92;;;18.70;;
24145;SDS011;12308;50.948;4.706;2023-04-29T13:45:06;28.70;;;19.05;;
24145;SDS011;12308;50.948;4.706;2023-04-29T13:47:32;25.27;;;19.33;;
24145;SDS011;12308;50.948;4.706;2023-04-29T13:49:58;26.10;;;19.92;;
24145;SDS011;12308;50.948;4.706;2023-04-29T13:52:24;28.20;;;19.67;;
24145;SDS011;12308;50.948;4.706;2023-04-29T13:54:49;28.73;;;20.98;;
24145;SDS011;12308;50.948;4.706;2023-04-29T13:57:15;26.52;;;18.73;;
24145;SDS011;12308;50.948;4.706;2023-04-29T13:59:41;28.15;;;19.80;;
24145;SDS011;12308;50.948;4.706;2023-04-29T14:02:07;28.83;;;19.67;;
24145;SDS011;12308;50.948;4.706;2023-04-29T14:04:33;32.97;;;20.80;;
24145;SDS011;12308;50.948;4.706;2023-04-29T14:06:59;26.08;;;19.25;;
24145;SDS011;12308;50.948;4.706;2023-04-29T14:09:24;24.98;;;18.90;;
24145;SDS011;12308;50.948;4.706;2023-04-29T14:11:50;24.30;;;18.02;;
24145;SDS011;12308;50.948;4.706;2023-04-29T14:14:16;31.90;;;17.80;;
24145;SDS011;12308;50.948;4.706;2023-04-29T14:16:42;29.63;;;20.17;;
24145;SDS011;12308;50.948;4.706;2023-04-29T14:19:08;31.17;;;18.80;;
24145;SDS011;12308;50.948;4.706;2023-04-29T14:21:33;30.42;;;18.98;;
24145;SDS011;12308;50.948;4.706;2023-04-29T14:23:59;24.42;;;18.45;;
24145;SDS011;12308;50.948;4.706;2023-04-29T14:26:29;26.92;;;19.13;;
24145;SDS011;12308;50.948;4.706;2023-04-29T14:28:56;25.38;;;17.92;;
24145;SDS011;12308;50.948;4.706;2023-04-29T14:31:26;27.92;;;18.30;;
24145;SDS011;12308;50.948;4.706;2023-04-29T14:33:56;24.17;;;17.97;;
24145;SDS011;12308;50.948;4.706;2023-04-29T14:36:22;24.55;;;17.38;;
24145;SDS011;12308;50.948;4.706;2023-04-29T14:38:49;23.95;;;16.67;;
24145;SDS011;12308;50.948;4.706;2023-04-29T14:41:15;27.25;;;18.10;;
24145;SDS011;12308;50.948;4.706;2023-04-29T14:43:40;23.08;;;16.38;;
24145;SDS011;12308;50.948;4.706;2023-04-29T14:46:07;20.77;;;15.85;;
24145;SDS011;12308;50.948;4.706;2023-04-29T14:48:33;22.05;;;15.70;;